createdAt,value
2019-05-18T00:01:38.958Z,6.05
2019-05-18T00:04:07.492Z,5.62
2019-05-18T00:06:36.018Z,7.10
2019-05-18T00:09:06.564Z,7.17
2019-05-18T00:11:35.211Z,5.30
2019-05-18T00:14:04.073Z,6.80
2019-05-18T00:16:32.805Z,6.47
2019-05-18T00:19:01.509Z,5.87
2019-05-18T00:21:30.103Z,9.05
2019-05-18T00:23:58.678Z,5.33
2019-05-18T00:26:27.360Z,7.17
2019-05-18T00:28:55.946Z,7.65
2019-05-18T00:31:24.651Z,6.08
2019-05-18T00:33:53.386Z,5.95
2019-05-18T00:36:21.996Z,7.85
2019-05-18T00:38:50.616Z,8.20
2019-05-18T00:41:19.295Z,9.30
2019-05-18T00:43:47.995Z,7.28
2019-05-18T00:46:16.635Z,8.20
2019-05-18T00:48:45.210Z,6.67
2019-05-18T00:51:13.888Z,8.60
2019-05-18T00:53:42.541Z,7.85
2019-05-18T00:56:11.361Z,8.10
2019-05-18T00:58:40.001Z,6.83
2019-05-18T01:01:09.058Z,7.05
2019-05-18T01:03:37.617Z,7.53
2019-05-18T01:06:06.299Z,6.80
2019-05-18T01:08:34.858Z,6.15
2019-05-18T01:11:03.487Z,10.63
2019-05-18T01:13:32.157Z,9.68
2019-05-18T01:16:00.940Z,7.75
2019-05-18T01:18:29.650Z,9.08
2019-05-18T01:20:59.164Z,10.55
2019-05-18T01:23:27.780Z,6.33
2019-05-18T01:25:56.399Z,9.30
2019-05-18T01:28:25.121Z,7.92
2019-05-18T01:30:53.693Z,9.78
2019-05-18T01:33:22.283Z,6.90
2019-05-18T01:35:50.883Z,11.65
2019-05-18T01:38:19.549Z,7.05
2019-05-18T01:40:48.263Z,9.18
2019-05-18T01:43:16.870Z,9.03
2019-05-18T01:45:45.603Z,8.83
2019-05-18T01:48:14.751Z,9.60
2019-05-18T01:50:43.523Z,6.05
2019-05-18T01:53:12.205Z,8.50
2019-05-18T01:55:40.816Z,8.15
2019-05-18T01:58:09.475Z,9.83
2019-05-18T02:00:38.141Z,11.18
2019-05-18T02:03:06.888Z,7.95
2019-05-18T02:05:35.473Z,11.60
2019-05-18T02:08:04.130Z,8.58
2019-05-18T02:10:32.752Z,7.95
2019-05-18T02:13:01.391Z,8.35
2019-05-18T02:15:30.204Z,10.80
2019-05-18T02:17:58.859Z,12.05
2019-05-18T02:20:27.417Z,9.88
2019-05-18T02:22:56.114Z,11.30
2019-05-18T02:25:24.899Z,11.10
2019-05-18T02:27:53.622Z,9.08
2019-05-18T02:30:22.397Z,8.23
2019-05-18T02:32:51.040Z,7.67
2019-05-18T02:35:19.656Z,10.68
2019-05-18T02:37:48.309Z,11.88
2019-05-18T02:40:17.111Z,8.23
2019-05-18T02:42:45.693Z,11.18
2019-05-18T02:45:14.471Z,13.40
2019-05-18T02:47:43.044Z,7.80
2019-05-18T02:50:12.081Z,9.38
2019-05-18T02:52:40.743Z,9.13
2019-05-18T02:55:09.523Z,11.30
2019-05-18T02:57:38.160Z,9.40
2019-05-18T03:00:10.050Z,11.85
2019-05-18T03:02:38.670Z,7.85
2019-05-18T03:05:08.491Z,7.92
2019-05-18T03:07:37.245Z,9.38
2019-05-18T03:10:07.783Z,13.18
2019-05-18T03:12:36.547Z,9.20
2019-05-18T03:15:06.601Z,10.50
2019-05-18T03:17:35.664Z,9.65
2019-05-18T03:20:06.687Z,9.88
2019-05-18T03:22:35.260Z,12.23
2019-05-18T03:25:06.200Z,9.95
2019-05-18T03:27:34.887Z,11.33
2019-05-18T03:30:06.015Z,11.22
2019-05-18T03:32:34.842Z,10.65
2019-05-18T03:35:03.915Z,9.63
2019-05-18T03:37:33.067Z,10.58
2019-05-18T03:40:02.534Z,12.03
2019-05-18T03:42:31.829Z,9.20
2019-05-18T03:45:00.968Z,10.63
2019-05-18T03:47:30.052Z,9.40
2019-05-18T03:49:59.171Z,9.65
2019-05-18T03:52:28.198Z,11.50
2019-05-18T03:54:57.291Z,14.95
2019-05-18T03:57:26.431Z,12.53
2019-05-18T03:59:55.600Z,11.50
2019-05-18T04:02:24.831Z,11.83
2019-05-18T04:04:53.843Z,12.23
2019-05-18T04:07:23.327Z,9.88
2019-05-18T04:09:52.401Z,11.73
2019-05-18T04:12:21.692Z,9.23
2019-05-18T04:14:50.958Z,10.15
2019-05-18T04:17:20.105Z,11.38
2019-05-18T04:19:49.459Z,12.30
2019-05-18T04:22:18.733Z,9.78
2019-05-18T04:24:47.769Z,10.08
2019-05-18T04:27:16.895Z,9.85
2019-05-18T04:29:45.944Z,9.93
2019-05-18T04:32:15.269Z,8.28
2019-05-18T04:34:44.497Z,9.30
2019-05-18T04:37:13.640Z,11.60
2019-05-18T04:39:42.878Z,10.68
2019-05-18T04:42:12.114Z,8.50
2019-05-18T04:44:41.228Z,6.12
2019-05-18T04:47:10.391Z,5.47
2019-05-18T04:49:39.823Z,5.53
2019-05-18T04:52:09.124Z,7.80
2019-05-18T04:54:38.440Z,8.58
2019-05-18T04:57:07.742Z,8.63
2019-05-18T04:59:37.218Z,10.70
2019-05-18T05:02:06.412Z,6.78
2019-05-18T05:04:35.864Z,7.67
2019-05-18T05:07:05.160Z,8.33
2019-05-18T05:09:34.400Z,6.78
2019-05-18T05:12:03.735Z,9.73
2019-05-18T05:14:33.136Z,5.97
2019-05-18T05:17:02.179Z,8.05
2019-05-18T05:19:31.668Z,5.97
2019-05-18T05:22:01.063Z,5.80
2019-05-18T05:24:30.346Z,4.30
2019-05-18T05:26:59.748Z,5.12
2019-05-18T05:29:29.065Z,6.22
2019-05-18T05:31:58.250Z,7.40
2019-05-18T05:34:27.675Z,8.55
2019-05-18T05:36:57.089Z,7.47
2019-05-18T05:39:26.263Z,8.15
2019-05-18T05:41:55.669Z,7.50
2019-05-18T05:44:25.078Z,7.97
2019-05-18T05:46:54.262Z,5.65
2019-05-18T05:49:23.713Z,6.25
2019-05-18T05:51:52.961Z,5.42
2019-05-18T05:54:22.313Z,5.08
2019-05-18T05:56:51.670Z,6.15
2019-05-18T05:59:20.975Z,5.75
2019-05-18T06:01:50.279Z,6.37
2019-05-18T06:04:19.626Z,5.05
2019-05-18T06:06:48.880Z,5.25
2019-05-18T06:09:18.048Z,6.10
2019-05-18T06:11:47.519Z,5.40
2019-05-18T06:14:16.914Z,5.78
2019-05-18T06:16:46.039Z,5.62
2019-05-18T06:19:15.511Z,5.45
2019-05-18T06:21:44.699Z,4.83
2019-05-18T06:24:14.071Z,4.75
2019-05-18T06:26:43.416Z,4.05
2019-05-18T06:29:12.604Z,4.83
2019-05-18T06:31:41.941Z,4.67
2019-05-18T06:34:11.183Z,4.78
2019-05-18T06:36:40.570Z,4.78
2019-05-18T06:39:09.831Z,5.47
2019-05-18T06:41:39.978Z,5.10
2019-05-18T06:44:09.166Z,4.75
2019-05-18T06:46:38.383Z,5.97
2019-05-18T06:49:07.691Z,5.22
2019-05-18T06:51:36.842Z,4.92
2019-05-18T06:54:06.119Z,5.05
2019-05-18T06:56:35.480Z,4.50
2019-05-18T06:59:04.742Z,4.58
2019-05-18T07:01:34.007Z,4.33
2019-05-18T07:04:03.531Z,4.10
2019-05-18T07:06:32.743Z,3.60
2019-05-18T07:09:02.009Z,3.83
2019-05-18T07:11:31.499Z,2.80
2019-05-18T07:14:00.590Z,3.22
2019-05-18T07:16:30.126Z,3.42
2019-05-18T07:18:59.242Z,2.83
2019-05-18T07:21:28.662Z,2.72
2019-05-18T07:23:58.028Z,2.47
2019-05-18T07:26:27.542Z,3.40
2019-05-18T07:28:57.022Z,2.65
2019-05-18T07:31:26.365Z,2.87
2019-05-18T07:33:55.773Z,3.22
2019-05-18T07:36:25.055Z,3.08
2019-05-18T07:38:54.222Z,3.15
2019-05-18T07:41:23.689Z,3.00
2019-05-18T07:43:52.861Z,2.95
2019-05-18T07:46:22.361Z,2.80
2019-05-18T07:48:51.711Z,2.22
2019-05-18T07:51:21.012Z,2.65
2019-05-18T07:53:50.442Z,2.85
2019-05-18T07:56:19.744Z,2.77
2019-05-18T07:58:49.071Z,2.80
2019-05-18T08:01:18.339Z,2.47
2019-05-18T08:03:47.981Z,2.60
2019-05-18T08:06:17.179Z,2.55
2019-05-18T08:08:46.328Z,2.80
2019-05-18T08:11:15.753Z,2.62
2019-05-18T08:13:45.580Z,2.20
2019-05-18T08:16:14.747Z,2.10
2019-05-18T08:18:44.054Z,2.00
2019-05-18T08:21:13.513Z,2.10
2019-05-18T08:23:42.589Z,2.20
2019-05-18T08:26:11.917Z,2.05
2019-05-18T08:28:41.317Z,2.30
2019-05-18T08:31:10.638Z,1.90
2019-05-18T08:33:40.035Z,2.08
2019-05-18T08:36:09.166Z,2.17
2019-05-18T08:38:38.555Z,2.33
2019-05-18T08:41:07.809Z,1.80
2019-05-18T08:43:37.019Z,1.98
2019-05-18T08:46:06.447Z,1.90
2019-05-18T08:48:35.854Z,1.87
2019-05-18T08:51:05.111Z,2.00
2019-05-18T08:53:34.465Z,2.00
2019-05-18T08:56:03.741Z,1.85
2019-05-18T08:58:33.122Z,1.85
2019-05-18T09:01:02.556Z,2.30
2019-05-18T09:03:31.784Z,2.00
2019-05-18T09:06:00.986Z,1.87
2019-05-18T09:08:30.143Z,2.10
2019-05-18T09:10:59.232Z,1.98
2019-05-18T09:13:28.518Z,2.00
2019-05-18T09:15:57.898Z,1.80
2019-05-18T09:18:27.117Z,1.85
2019-05-18T09:20:56.506Z,2.42
2019-05-18T09:23:25.759Z,1.95
2019-05-18T09:25:55.150Z,1.52
2019-05-18T09:28:24.269Z,1.80
2019-05-18T09:30:53.703Z,1.52
2019-05-18T09:33:23.001Z,1.92
2019-05-18T09:35:52.067Z,1.65
2019-05-18T09:38:22.023Z,1.70
2019-05-18T09:40:51.563Z,1.67
2019-05-18T09:43:20.736Z,1.72
2019-05-18T09:45:50.072Z,1.70
2019-05-18T09:48:19.498Z,1.50
2019-05-18T09:50:48.785Z,1.75
2019-05-18T09:53:18.002Z,1.50
2019-05-18T09:55:47.366Z,1.80
2019-05-18T09:58:16.630Z,1.90
2019-05-18T10:00:46.048Z,1.60
2019-05-18T10:03:15.555Z,1.95
2019-05-18T10:05:44.795Z,1.72
2019-05-18T10:08:14.049Z,1.98
2019-05-18T10:10:43.431Z,1.55
2019-05-18T10:13:12.760Z,1.90
2019-05-18T10:15:42.189Z,1.60
2019-05-18T10:18:11.455Z,1.87
2019-05-18T10:20:40.646Z,1.57
2019-05-18T10:23:13.692Z,1.87
2019-05-18T10:25:40.916Z,1.67
2019-05-18T10:28:10.054Z,1.70
2019-05-18T10:30:39.271Z,1.80
2019-05-18T10:33:08.416Z,2.00
2019-05-18T10:35:37.615Z,1.77
2019-05-18T10:38:06.697Z,1.60
2019-05-18T10:40:35.952Z,2.05
2019-05-18T10:43:05.096Z,2.15
2019-05-18T10:45:34.596Z,2.08
2019-05-18T10:48:04.035Z,2.33
2019-05-18T10:50:33.378Z,2.20
2019-05-18T10:53:02.441Z,2.37
2019-05-18T10:55:31.895Z,1.67
2019-05-18T10:58:01.081Z,1.87
2019-05-18T11:00:30.442Z,2.05
2019-05-18T11:02:59.691Z,2.60
2019-05-18T11:05:29.132Z,2.30
2019-05-18T11:07:58.435Z,2.50
2019-05-18T11:10:27.790Z,2.62
2019-05-18T11:12:56.951Z,2.65
2019-05-18T11:15:26.411Z,2.67
2019-05-18T11:17:55.816Z,2.72
2019-05-18T11:20:25.128Z,2.45
2019-05-18T11:22:54.432Z,2.70
2019-05-18T11:25:23.741Z,2.65
2019-05-18T11:27:52.972Z,2.60
2019-05-18T11:30:22.735Z,2.40
2019-05-18T11:32:51.827Z,2.30
2019-05-18T11:35:21.012Z,2.75
2019-05-18T11:37:50.229Z,2.20
2019-05-18T11:40:19.640Z,2.15
2019-05-18T11:42:48.839Z,2.20
2019-05-18T11:45:19.018Z,2.52
2019-05-18T11:47:48.215Z,2.42
2019-05-18T11:50:17.980Z,2.20
2019-05-18T11:52:47.318Z,2.10
2019-05-18T11:55:16.783Z,2.00
2019-05-18T11:57:46.001Z,2.22
2019-05-18T12:00:16.209Z,1.90
2019-05-18T12:02:45.489Z,2.53
2019-05-18T12:05:15.984Z,2.58
2019-05-18T12:07:45.020Z,2.50
2019-05-18T12:10:14.539Z,2.50
2019-05-18T12:12:43.684Z,2.30
2019-05-18T12:15:14.662Z,2.67
2019-05-18T12:20:13.467Z,2.25
2019-05-18T12:22:42.738Z,2.00
2019-05-18T12:25:12.198Z,2.30
2019-05-18T12:27:41.516Z,1.75
2019-05-18T12:30:11.935Z,1.90
2019-05-18T12:32:41.312Z,2.05
2019-05-18T12:35:10.744Z,1.90
2019-05-18T12:37:40.032Z,1.90
2019-05-18T12:40:10.054Z,1.98
2019-05-18T12:42:39.155Z,2.15
2019-05-18T12:45:10.307Z,2.00
2019-05-18T12:50:08.879Z,2.35
2019-05-18T12:52:38.449Z,2.13
2019-05-18T12:55:08.047Z,2.00
2019-05-18T12:57:37.538Z,2.00
2019-05-18T13:00:12.142Z,1.98
2019-05-18T13:02:41.485Z,1.62
2019-05-18T13:05:10.861Z,1.80
2019-05-18T13:07:39.942Z,1.70
2019-05-18T13:10:11.409Z,1.80
2019-05-18T13:12:40.686Z,1.72
2019-05-18T13:15:12.100Z,1.80
2019-05-18T13:17:41.393Z,1.98
2019-05-18T13:20:12.107Z,1.50
2019-05-18T13:22:41.465Z,1.77
2019-05-18T13:25:11.465Z,1.60
2019-05-18T13:27:40.671Z,1.67
2019-05-18T13:30:12.186Z,1.60
2019-05-18T13:32:41.471Z,2.20
2019-05-18T13:35:11.447Z,2.00
2019-05-18T13:37:40.618Z,2.40
2019-05-18T13:40:10.186Z,2.42
2019-05-18T13:42:39.442Z,2.10
2019-05-18T13:45:10.165Z,2.72
2019-05-18T13:47:40.094Z,3.30
2019-05-18T13:50:09.581Z,4.28
2019-05-18T13:52:38.831Z,5.15
2019-05-18T13:55:08.483Z,6.00
2019-05-18T13:57:37.760Z,4.75
2019-05-18T14:00:08.729Z,4.05
2019-05-18T14:02:38.142Z,3.17
2019-05-18T14:05:09.059Z,3.52
2019-05-18T14:07:38.320Z,3.20
2019-05-18T14:10:12.655Z,2.87
2019-05-18T14:12:41.571Z,2.77
2019-05-18T14:15:12.184Z,2.60
2019-05-18T14:17:41.296Z,2.62
2019-05-18T14:20:10.907Z,2.10
2019-05-18T14:22:40.067Z,2.33
2019-05-18T14:25:19.501Z,2.80
2019-05-18T14:27:41.319Z,2.25
2019-05-18T14:30:10.858Z,2.10
2019-05-18T14:32:40.068Z,2.37
2019-05-18T14:35:09.619Z,2.00
2019-05-18T14:37:38.715Z,1.92
2019-05-18T14:40:08.695Z,1.90
2019-05-18T14:42:37.926Z,1.98
2019-05-18T14:45:09.053Z,1.85
2019-05-18T14:50:07.714Z,4.35
2019-05-18T14:52:37.215Z,2.90
2019-05-18T14:55:06.894Z,2.60
2019-05-18T14:57:36.050Z,4.45
2019-05-18T15:00:07.201Z,3.50
2019-05-18T15:02:36.426Z,3.67
2019-05-18T15:05:09.994Z,2.00
2019-05-18T15:07:39.514Z,2.12
2019-05-18T15:10:10.931Z,5.12
2019-05-18T15:12:40.269Z,4.12
2019-05-18T15:15:10.338Z,4.35
2019-05-18T15:17:39.404Z,2.25
2019-05-18T15:20:09.169Z,2.20
2019-05-18T15:22:38.631Z,2.08
2019-05-18T15:25:08.105Z,2.27
2019-05-18T15:27:37.303Z,2.10
2019-05-18T15:30:07.986Z,1.98
2019-05-18T15:32:37.217Z,2.20
2019-05-18T15:35:08.802Z,2.22
2019-05-18T15:37:38.928Z,2.22
2019-05-18T15:40:08.671Z,2.10
2019-05-18T15:42:37.874Z,2.02
2019-05-18T15:45:07.625Z,2.10
2019-05-18T15:47:37.197Z,2.60
2019-05-18T15:50:09.388Z,2.90
2019-05-18T15:52:38.695Z,3.50
2019-05-18T15:55:09.318Z,2.52
2019-05-18T15:57:38.587Z,2.45
2019-05-18T16:00:09.222Z,1.82
2019-05-18T16:02:38.651Z,1.92
2019-05-18T16:05:08.821Z,2.08
2019-05-18T16:07:38.095Z,2.10
2019-05-18T16:10:09.932Z,2.00
2019-05-18T16:12:39.212Z,1.87
2019-05-18T16:15:08.694Z,2.12
2019-05-18T16:17:39.893Z,1.75
2019-05-18T16:20:08.746Z,1.90
2019-05-18T16:22:37.999Z,1.62
2019-05-18T16:25:08.048Z,2.00
2019-05-18T16:27:37.202Z,2.15
2019-05-18T16:30:08.351Z,3.62
2019-05-18T16:32:37.403Z,3.40
2019-05-18T16:35:08.698Z,2.58
2019-05-18T16:37:37.705Z,2.10
2019-05-18T16:40:08.342Z,2.60
2019-05-18T16:42:37.655Z,3.10
2019-05-18T16:45:08.730Z,2.10
2019-05-18T16:47:38.077Z,1.62
2019-05-18T16:50:08.911Z,1.80
2019-05-18T16:52:38.127Z,2.65
2019-05-18T16:55:09.161Z,1.65
2019-05-18T16:57:38.741Z,1.75
2019-05-18T17:00:10.941Z,1.65
2019-05-18T17:02:40.129Z,1.45
2019-05-18T17:05:09.517Z,1.77
2019-05-18T17:07:38.665Z,1.70
2019-05-18T17:10:08.657Z,2.15
2019-05-18T17:12:37.722Z,1.90
2019-05-18T17:15:10.231Z,1.90
2019-05-18T17:17:40.038Z,2.00
2019-05-18T17:20:09.824Z,1.80
2019-05-18T17:22:39.076Z,2.05
2019-05-18T17:25:08.401Z,2.10
2019-05-18T17:27:37.701Z,2.20
2019-05-18T17:30:08.109Z,1.98
2019-05-18T17:32:37.339Z,3.53
2019-05-18T17:35:07.414Z,2.47
2019-05-18T17:37:36.728Z,2.00
2019-05-18T17:40:07.213Z,2.10
2019-05-18T17:42:36.390Z,2.20
2019-05-18T17:45:07.611Z,2.00
2019-05-18T17:50:10.072Z,2.20
2019-05-18T17:52:39.324Z,1.90
2019-05-18T17:55:09.388Z,1.85
2019-05-18T17:57:38.752Z,3.65
2019-05-18T18:00:09.413Z,2.05
2019-05-18T18:02:38.741Z,2.02
2019-05-18T18:05:09.289Z,2.30
2019-05-18T18:07:38.661Z,2.63
2019-05-18T18:10:08.674Z,2.42
2019-05-18T18:12:37.824Z,2.35
2019-05-18T18:15:08.117Z,2.22
2019-05-18T18:17:37.291Z,2.25
2019-05-18T18:20:07.347Z,2.12
2019-05-18T18:22:36.575Z,2.00
2019-05-18T18:25:07.179Z,2.22
2019-05-18T18:27:37.235Z,2.20
2019-05-18T18:30:08.740Z,2.67
2019-05-18T18:35:07.408Z,1.92
2019-05-18T18:37:36.876Z,2.40
2019-05-18T18:40:07.338Z,2.50
2019-05-18T18:42:36.573Z,2.20
2019-05-18T18:45:09.079Z,2.00
2019-05-18T18:47:38.574Z,2.05
2019-05-18T18:50:08.687Z,2.22
2019-05-18T18:52:37.995Z,2.30
2019-05-18T18:55:08.550Z,2.20
2019-05-18T18:57:41.693Z,2.10
2019-05-18T19:00:09.063Z,1.98
2019-05-18T19:02:38.559Z,1.70
2019-05-18T19:05:08.114Z,2.12
2019-05-18T19:07:37.290Z,1.90
2019-05-18T19:10:08.100Z,2.35
2019-05-18T19:12:37.405Z,2.40
2019-05-18T19:15:10.501Z,2.05
2019-05-18T19:17:39.800Z,2.10
2019-05-18T19:20:09.492Z,2.20
2019-05-18T19:22:38.595Z,1.98
2019-05-18T19:25:08.141Z,2.17
2019-05-18T19:27:37.291Z,2.15
2019-05-18T19:30:10.280Z,1.82
2019-05-18T19:32:39.376Z,2.33
2019-05-18T19:35:08.519Z,2.20
2019-05-18T19:37:37.587Z,2.15
2019-05-18T19:40:07.923Z,3.25
2019-05-18T19:42:36.619Z,2.90
2019-05-18T19:45:06.992Z,2.50
2019-05-18T19:47:35.678Z,2.30
2019-05-18T19:50:06.139Z,2.70
2019-05-18T19:52:34.953Z,2.80
2019-05-18T19:55:04.663Z,2.40
2019-05-18T19:57:33.376Z,2.52
2019-05-18T20:00:02.264Z,2.98
2019-05-18T20:02:30.960Z,2.30
2019-05-18T20:05:07.188Z,2.85
2019-05-18T20:07:29.852Z,2.60
2019-05-18T20:09:58.523Z,2.62
2019-05-18T20:12:27.191Z,2.37
2019-05-18T20:14:55.856Z,4.25
2019-05-18T20:17:24.536Z,2.87
2019-05-18T20:19:53.162Z,2.75
2019-05-18T20:22:21.819Z,2.60
2019-05-18T20:24:50.374Z,2.60
2019-05-18T20:27:19.016Z,3.02
2019-05-18T20:29:47.766Z,3.42
2019-05-18T20:32:16.412Z,3.58
2019-05-18T20:34:45.144Z,3.85
2019-05-18T20:37:13.806Z,3.80
2019-05-18T20:39:42.414Z,2.72
2019-05-18T20:42:11.156Z,2.92
2019-05-18T20:44:39.818Z,2.90
2019-05-18T20:47:08.446Z,2.77
2019-05-18T20:49:37.158Z,2.92
2019-05-18T20:52:05.884Z,2.58
2019-05-18T20:54:34.491Z,2.40
2019-05-18T20:57:03.116Z,2.47
2019-05-18T20:59:31.700Z,4.00
2019-05-18T21:02:00.385Z,3.70
2019-05-18T21:04:29.101Z,2.58
2019-05-18T21:06:57.744Z,2.50
2019-05-18T21:09:26.419Z,2.50
2019-05-18T21:11:55.287Z,2.40
2019-05-18T21:14:24.045Z,2.80
2019-05-18T21:16:52.778Z,2.80
2019-05-18T21:19:21.665Z,3.12
2019-05-18T21:21:50.375Z,3.42
2019-05-18T21:24:19.098Z,2.90
2019-05-18T21:26:47.634Z,2.75
2019-05-18T21:29:16.297Z,2.42
2019-05-18T21:31:44.956Z,2.30
2019-05-18T21:34:13.560Z,2.62
2019-05-18T21:36:42.289Z,2.27
2019-05-18T21:39:10.928Z,2.70
2019-05-18T21:41:39.682Z,2.95
2019-05-18T21:44:08.391Z,2.72
2019-05-18T21:46:39.083Z,2.65
2019-05-18T21:49:07.445Z,2.30
2019-05-18T21:51:36.181Z,2.47
2019-05-18T21:54:05.030Z,2.83
2019-05-18T21:56:33.745Z,2.87
2019-05-18T21:59:11.315Z,2.58
2019-05-18T22:01:32.877Z,2.77
2019-05-18T22:04:01.570Z,2.52
2019-05-18T22:06:30.287Z,2.60
2019-05-18T22:08:59.029Z,2.55
2019-05-18T22:11:27.709Z,2.60
2019-05-18T22:13:56.463Z,2.50
2019-05-18T22:16:25.181Z,2.52
2019-05-18T22:18:53.813Z,2.87
2019-05-18T22:21:22.408Z,2.70
2019-05-18T22:23:51.028Z,2.67
2019-05-18T22:26:19.633Z,2.90
2019-05-18T22:28:48.345Z,2.30
2019-05-18T22:31:19.586Z,2.62
2019-05-18T22:33:47.448Z,2.60
2019-05-18T22:36:16.064Z,2.50
2019-05-18T22:38:44.813Z,2.67
2019-05-18T22:41:13.495Z,2.60
2019-05-18T22:43:42.215Z,2.20
2019-05-18T22:46:10.930Z,2.50
2019-05-18T22:48:41.574Z,2.52
2019-05-18T22:51:09.821Z,2.80
2019-05-18T22:53:38.478Z,2.72
2019-05-18T22:56:07.143Z,2.60
2019-05-18T22:58:35.806Z,2.35
2019-05-18T23:01:04.713Z,3.30
2019-05-18T23:03:33.395Z,3.87
2019-05-18T23:06:02.085Z,3.67
2019-05-18T23:08:30.739Z,6.75
2019-05-18T23:10:59.429Z,7.97
2019-05-18T23:13:28.167Z,6.40
2019-05-18T23:15:56.883Z,4.53
2019-05-18T23:18:25.550Z,4.95
2019-05-18T23:20:54.162Z,6.40
2019-05-18T23:23:22.914Z,5.92
2019-05-18T23:25:54.558Z,5.75
2019-05-18T23:28:23.275Z,3.70
2019-05-18T23:30:51.810Z,3.00
2019-05-18T23:33:20.497Z,2.87
2019-05-18T23:35:49.171Z,3.20
2019-05-18T23:38:17.865Z,3.52
2019-05-18T23:40:46.556Z,4.12
2019-05-18T23:43:15.223Z,4.75
2019-05-18T23:45:44.045Z,4.85
2019-05-18T23:48:12.837Z,4.75
2019-05-18T23:50:41.472Z,4.17
2019-05-18T23:53:10.105Z,3.72
2019-05-18T23:55:38.753Z,3.72
2019-05-18T23:58:07.425Z,2.92
